sensor_id;sensor_type;location;lat;lon;timestamp;pressure;altitude;pressure_sealevel;temperature;humidity
51099;BME280;37146;48.210;16.234;2023-02-23T00:01:34;98569.41;;;5.33;100.00
51099;BME280;37146;48.210;16.234;2023-02-23T00:04:00;98569.75;;;5.48;100.00
51099;BME280;37146;48.210;16.234;2023-02-23T00:06:26;98555.31;;;5.55;100.00
51099;BME280;37146;48.210;16.234;2023-02-23T00:08:52;98560.06;;;5.47;100.00
51099;BME280;37146;48.210;16.234;2023-02-23T00:11:17;98558.88;;;5.55;100.00
51099;BME280;37146;48.210;16.234;2023-02-23T00:13:43;98558.22;;;5.49;100.00
51099;BME280;37146;48.210;16.234;2023-02-23T00:18:37;98554.47;;;5.54;100.00
51099;BME280;37146;48.210;16.234;2023-02-23T00:21:15;98551.41;;;5.65;100.00
51099;BME280;37146;48.210;16.234;2023-02-23T00:23:42;98551.53;;;5.62;100.00
51099;BME280;37146;48.210;16.234;2023-02-23T00:26:09;98558.44;;;5.66;100.00
51099;BME280;37146;48.210;16.234;2023-02-23T00:28:34;98556.69;;;5.65;100.00
51099;BME280;37146;48.210;16.234;2023-02-23T00:31:03;98559.78;;;5.77;100.00
51099;BME280;37146;48.210;16.234;2023-02-23T00:33:28;98551.78;;;5.78;100.00
51099;BME280;37146;48.210;16.234;2023-02-23T00:36:05;98548.19;;;5.79;100.00
51099;BME280;37146;48.210;16.234;2023-02-23T00:38:32;98550.91;;;5.78;100.00
51099;BME280;37146;48.210;16.234;2023-02-23T00:41:02;98551.94;;;5.73;100.00
51099;BME280;37146;48.210;16.234;2023-02-23T00:43:28;98549.44;;;5.70;100.00
51099;BME280;37146;48.210;16.234;2023-02-23T00:45:54;98548.63;;;5.68;100.00
51099;BME280;37146;48.210;16.234;2023-02-23T00:48:19;98547.72;;;5.69;100.00
51099;BME280;37146;48.210;16.234;2023-02-23T00:50:44;98547.72;;;5.69;100.00
51099;BME280;37146;48.210;16.234;2023-02-23T00:53:10;98552.19;;;5.67;100.00
51099;BME280;37146;48.210;16.234;2023-02-23T00:55:35;98546.28;;;5.61;100.00
51099;BME280;37146;48.210;16.234;2023-02-23T00:58:04;98541.97;;;5.58;100.00
51099;BME280;37146;48.210;16.234;2023-02-23T01:00:30;98544.50;;;5.61;100.00
51099;BME280;37146;48.210;16.234;2023-02-23T01:02:56;98545.97;;;5.68;100.00
51099;BME280;37146;48.210;16.234;2023-02-23T01:05:21;98550.47;;;5.66;100.00
51099;BME280;37146;48.210;16.234;2023-02-23T01:07:46;98547.81;;;5.66;100.00
51099;BME280;37146;48.210;16.234;2023-02-23T01:10:11;98542.63;;;5.63;100.00
51099;BME280;37146;48.210;16.234;2023-02-23T01:12:44;98537.81;;;5.51;100.00
51099;BME280;37146;48.210;16.234;2023-02-23T01:15:10;98545.41;;;5.60;100.00
51099;BME280;37146;48.210;16.234;2023-02-23T01:17:36;98542.88;;;5.57;100.00
51099;BME280;37146;48.210;16.234;2023-02-23T01:20:01;98544.97;;;5.49;100.00
51099;BME280;37146;48.210;16.234;2023-02-23T01:22:31;98539.03;;;5.42;100.00
51099;BME280;37146;48.210;16.234;2023-02-23T01:24:57;98543.94;;;5.29;100.00
51099;BME280;37146;48.210;16.234;2023-02-23T01:27:22;98537.03;;;5.25;100.00
51099;BME280;37146;48.210;16.234;2023-02-23T01:29:48;98538.22;;;5.16;100.00
51099;BME280;37146;48.210;16.234;2023-02-23T01:32:14;98540.50;;;5.02;100.00
51099;BME280;37146;48.210;16.234;2023-02-23T01:34:39;98534.88;;;4.87;100.00
51099;BME280;37146;48.210;16.234;2023-02-23T01:37:04;98529.19;;;4.73;100.00
51099;BME280;37146;48.210;16.234;2023-02-23T01:39:31;98533.50;;;4.75;100.00
51099;BME280;37146;48.210;16.234;2023-02-23T01:41:56;98529.56;;;4.87;100.00
51099;BME280;37146;48.210;16.234;2023-02-23T01:46:46;98536.75;;;4.84;100.00
51099;BME280;37146;48.210;16.234;2023-02-23T01:49:15;98525.84;;;4.68;100.00
51099;BME280;37146;48.210;16.234;2023-02-23T01:51:48;98527.53;;;4.70;100.00
51099;BME280;37146;48.210;16.234;2023-02-23T01:54:15;98528.44;;;4.69;100.00
51099;BME280;37146;48.210;16.234;2023-02-23T01:56:46;98514.72;;;4.58;100.00
51099;BME280;37146;48.210;16.234;2023-02-23T01:59:22;98523.66;;;4.54;100.00
51099;BME280;37146;48.210;16.234;2023-02-23T02:01:52;98524.63;;;4.76;100.00
51099;BME280;37146;48.210;16.234;2023-02-23T02:04:17;98527.25;;;4.78;100.00
51099;BME280;37146;48.210;16.234;2023-02-23T02:06:44;98518.41;;;4.77;100.00
51099;BME280;37146;48.210;16.234;2023-02-23T02:09:12;98522.69;;;4.82;100.00
51099;BME280;37146;48.210;16.234;2023-02-23T02:11:41;98519.66;;;4.92;100.00
51099;BME280;37146;48.210;16.234;2023-02-23T02:29:42;98520.19;;;5.02;100.00
51099;BME280;37146;48.210;16.234;2023-02-23T02:45:23;98524.91;;;4.94;100.00
51099;BME280;37146;48.210;16.234;2023-02-23T02:48:03;98522.13;;;4.97;100.00
51099;BME280;37146;48.210;16.234;2023-02-23T02:50:42;98517.72;;;4.98;100.00
51099;BME280;37146;48.210;16.234;2023-02-23T02:53:11;98522.47;;;4.88;100.00
51099;BME280;37146;48.210;16.234;2023-02-23T02:55:38;98520.63;;;4.90;100.00
51099;BME280;37146;48.210;16.234;2023-02-23T02:58:07;98521.56;;;4.89;100.00
51099;BME280;37146;48.210;16.234;2023-02-23T03:00:43;98535.78;;;4.86;100.00
51099;BME280;37146;48.210;16.234;2023-02-23T03:03:28;98526.91;;;4.87;100.00
51099;BME280;37146;48.210;16.234;2023-02-23T03:06:12;98529.50;;;4.89;100.00
51099;BME280;37146;48.210;16.234;2023-02-23T03:09:01;98534.69;;;4.92;100.00
51099;BME280;37146;48.210;16.234;2023-02-23T03:11:51;98538.50;;;4.85;100.00
51099;BME280;37146;48.210;16.234;2023-02-23T03:14:47;98537.72;;;4.81;100.00
51099;BME280;37146;48.210;16.234;2023-02-23T03:17:36;98542.66;;;4.92;100.00
51099;BME280;37146;48.210;16.234;2023-02-23T03:20:36;98536.75;;;4.84;100.00
51099;BME280;37146;48.210;16.234;2023-02-23T03:23:27;98545.66;;;4.81;100.00
51099;BME280;37146;48.210;16.234;2023-02-23T03:26:22;98538.50;;;4.85;100.00
51099;BME280;37146;48.210;16.234;2023-02-23T03:32:07;98540.66;;;4.73;100.00
51099;BME280;37146;48.210;16.234;2023-02-23T03:34:59;98540.59;;;4.75;100.00
51099;BME280;37146;48.210;16.234;2023-02-23T03:37:58;98537.94;;;4.75;100.00
51099;BME280;37146;48.210;16.234;2023-02-23T03:40:45;98542.38;;;4.74;100.00
51099;BME280;37146;48.210;16.234;2023-02-23T03:43:33;98538.94;;;4.72;100.00
51099;BME280;37146;48.210;16.234;2023-02-23T03:46:18;98551.25;;;4.73;100.00
51099;BME280;37146;48.210;16.234;2023-02-23T03:49:03;98547.63;;;4.76;100.00
51099;BME280;37146;48.210;16.234;2023-02-23T03:51:50;98547.81;;;4.71;100.00
51099;BME280;37146;48.210;16.234;2023-02-23T03:54:40;98553.25;;;4.67;100.00
51099;BME280;37146;48.210;16.234;2023-02-23T03:57:26;98549.72;;;4.66;100.00
51099;BME280;37146;48.210;16.234;2023-02-23T04:00:11;98550.63;;;4.67;100.00
51099;BME280;37146;48.210;16.234;2023-02-23T04:02:58;98549.06;;;4.59;100.00
51099;BME280;37146;48.210;16.234;2023-02-23T04:05:43;98545.50;;;4.60;100.00
51099;BME280;37146;48.210;16.234;2023-02-23T04:08:32;98557.03;;;4.59;100.00
51099;BME280;37146;48.210;16.234;2023-02-23T04:14:03;98554.66;;;4.52;100.00
51099;BME280;37146;48.210;16.234;2023-02-23T04:16:29;98550.97;;;4.56;100.00
51099;BME280;37146;48.210;16.234;2023-02-23T04:18:55;98552.88;;;4.52;100.00
51099;BME280;37146;48.210;16.234;2023-02-23T04:21:21;98555.44;;;4.54;100.00
51099;BME280;37146;48.210;16.234;2023-02-23T04:23:46;98551.22;;;4.48;100.00
51099;BME280;37146;48.210;16.234;2023-02-23T04:26:12;98549.47;;;4.48;100.00
51099;BME280;37146;48.210;16.234;2023-02-23T04:28:37;98552.22;;;4.45;100.00
51099;BME280;37146;48.210;16.234;2023-02-23T04:31:02;98554.78;;;4.47;100.00
51099;BME280;37146;48.210;16.234;2023-02-23T04:33:28;98553.03;;;4.47;100.00
51099;BME280;37146;48.210;16.234;2023-02-23T04:35:53;98562.81;;;4.45;100.00
51099;BME280;37146;48.210;16.234;2023-02-23T04:38:19;98551.53;;;4.40;100.00
51099;BME280;37146;48.210;16.234;2023-02-23T04:40:44;98554.94;;;4.42;100.00
51099;BME280;37146;48.210;16.234;2023-02-23T04:43:10;98559.34;;;4.43;100.00
51099;BME280;37146;48.210;16.234;2023-02-23T04:45:36;98557.72;;;4.39;100.00
51099;BME280;37146;48.210;16.234;2023-02-23T04:48:01;98562.91;;;4.42;100.00
51099;BME280;37146;48.210;16.234;2023-02-23T04:50:26;98557.00;;;4.34;100.00
51099;BME280;37146;48.210;16.234;2023-02-23T04:52:51;98557.81;;;4.36;100.00
51099;BME280;37146;48.210;16.234;2023-02-23T04:55:19;98560.41;;;4.38;100.00
51099;BME280;37146;48.210;16.234;2023-02-23T04:57:45;98557.81;;;4.36;100.00
51099;BME280;37146;48.210;16.234;2023-02-23T05:00:10;98556.00;;;4.38;100.00
51099;BME280;37146;48.210;16.234;2023-02-23T05:02:36;98553.38;;;4.37;100.00
51099;BME280;37146;48.210;16.234;2023-02-23T05:05:01;98554.16;;;4.40;100.00
51099;BME280;37146;48.210;16.234;2023-02-23T05:07:26;98557.81;;;4.36;100.00
51099;BME280;37146;48.210;16.234;2023-02-23T05:09:51;98550.78;;;4.35;100.00
51099;BME280;37146;48.210;16.234;2023-02-23T05:12:16;98551.78;;;4.32;100.00
51099;BME280;37146;48.210;16.234;2023-02-23T05:14:42;98544.00;;;4.26;100.00
51099;BME280;37146;48.210;16.234;2023-02-23T05:17:07;98549.88;;;4.36;100.00
51099;BME280;37146;48.210;16.234;2023-02-23T05:19:32;98552.63;;;4.33;100.00
51099;BME280;37146;48.210;16.234;2023-02-23T05:21:58;98552.44;;;4.39;100.00
51099;BME280;37146;48.210;16.234;2023-02-23T05:24:23;98554.91;;;4.44;100.00
51099;BME280;37146;48.210;16.234;2023-02-23T05:26:49;98555.88;;;4.41;100.00
51099;BME280;37146;48.210;16.234;2023-02-23T05:29:14;98557.72;;;4.39;100.00
51099;BME280;37146;48.210;16.234;2023-02-23T05:31:40;98561.38;;;4.35;100.00
51099;BME280;37146;48.210;16.234;2023-02-23T05:34:06;98558.81;;;4.33;100.00
51099;BME280;37146;48.210;16.234;2023-02-23T05:36:31;98560.63;;;4.31;100.00
51099;BME280;37146;48.210;16.234;2023-02-23T05:38:56;98558.03;;;4.30;100.00
51099;BME280;37146;48.210;16.234;2023-02-23T05:41:22;98564.19;;;4.30;100.00
51099;BME280;37146;48.210;16.234;2023-02-23T05:43:48;98561.78;;;4.23;100.00
51099;BME280;37146;48.210;16.234;2023-02-23T05:46:17;98565.56;;;4.15;100.00
51099;BME280;37146;48.210;16.234;2023-02-23T05:48:43;98570.88;;;4.14;100.00
51099;BME280;37146;48.210;16.234;2023-02-23T05:51:10;98571.31;;;4.01;100.00
51099;BME280;37146;48.210;16.234;2023-02-23T05:53:35;98571.84;;;4.13;100.00
51099;BME280;37146;48.210;16.234;2023-02-23T05:56:01;98577.97;;;4.13;100.00
51099;BME280;37146;48.210;16.234;2023-02-23T05:58:26;98581.53;;;4.12;100.00
51099;BME280;37146;48.210;16.234;2023-02-23T06:00:52;98577.00;;;4.16;100.00
51099;BME280;37146;48.210;16.234;2023-02-23T06:03:17;98578.81;;;4.14;100.00
51099;BME280;37146;48.210;16.234;2023-02-23T06:05:48;98579.72;;;4.14;100.00
51099;BME280;37146;48.210;16.234;2023-02-23T06:08:13;98582.97;;;4.23;100.00
51099;BME280;37146;48.210;16.234;2023-02-23T06:10:38;98589.66;;;4.35;100.00
51099;BME280;37146;48.210;16.234;2023-02-23T06:13:03;98588.94;;;4.29;100.00
51099;BME280;37146;48.210;16.234;2023-02-23T06:15:29;98593.16;;;4.35;100.00
51099;BME280;37146;48.210;16.234;2023-02-23T06:17:54;98588.84;;;4.32;100.00
51099;BME280;37146;48.210;16.234;2023-02-23T06:20:20;98600.28;;;4.33;100.00
51099;BME280;37146;48.210;16.234;2023-02-23T06:22:45;98597.13;;;4.48;100.00
51099;BME280;37146;48.210;16.234;2023-02-23T06:25:12;98601.69;;;4.43;100.00
51099;BME280;37146;48.210;16.234;2023-02-23T06:27:37;98606.00;;;4.47;100.00
51099;BME280;37146;48.210;16.234;2023-02-23T06:30:03;98609.66;;;4.70;100.00
51099;BME280;37146;48.210;16.234;2023-02-23T06:32:29;98604.19;;;4.75;100.00
51099;BME280;37146;48.210;16.234;2023-02-23T06:34:54;98606.78;;;4.76;100.00
51099;BME280;37146;48.210;16.234;2023-02-23T06:37:19;98609.09;;;4.86;100.00
51099;BME280;37146;48.210;16.234;2023-02-23T06:39:44;98613.59;;;4.84;100.00
51099;BME280;37146;48.210;16.234;2023-02-23T06:42:10;98620.66;;;4.85;100.00
51099;BME280;37146;48.210;16.234;2023-02-23T06:44:35;98619.66;;;4.87;100.00
51099;BME280;37146;48.210;16.234;2023-02-23T06:47:02;98615.19;;;4.89;100.00
51099;BME280;37146;48.210;16.234;2023-02-23T06:49:29;98619.69;;;4.86;100.00
51099;BME280;37146;48.210;16.234;2023-02-23T06:51:54;98622.22;;;4.90;100.00
51099;BME280;37146;48.210;16.234;2023-02-23T06:54:20;98619.16;;;5.01;100.00
51099;BME280;37146;48.210;16.234;2023-02-23T06:56:45;98617.34;;;5.03;100.00
51099;BME280;37146;48.210;16.234;2023-02-23T06:59:10;98629.69;;;5.04;100.00
51099;BME280;37146;48.210;16.234;2023-02-23T07:01:35;98625.94;;;5.10;100.00
51099;BME280;37146;48.210;16.234;2023-02-23T07:04:01;98632.69;;;5.19;100.00
51099;BME280;37146;48.210;16.234;2023-02-23T07:06:26;98628.53;;;5.11;100.00
51099;BME280;37146;48.210;16.234;2023-02-23T07:08:51;98632.91;;;5.13;100.00
51099;BME280;37146;48.210;16.234;2023-02-23T07:11:16;98629.00;;;5.23;100.00
51099;BME280;37146;48.210;16.234;2023-02-23T07:13:43;98641.19;;;5.29;100.00
51099;BME280;37146;48.210;16.234;2023-02-23T07:16:08;98631.75;;;5.20;100.00
51099;BME280;37146;48.210;16.234;2023-02-23T07:18:33;98638.69;;;5.24;100.00
51099;BME280;37146;48.210;16.234;2023-02-23T07:20:58;98638.59;;;5.27;100.00
51099;BME280;37146;48.210;16.234;2023-02-23T07:23:24;98642.09;;;5.28;100.00
51099;BME280;37146;48.210;16.234;2023-02-23T07:25:50;98638.53;;;5.29;100.00
51099;BME280;37146;48.210;16.234;2023-02-23T07:28:15;98647.81;;;5.40;100.00
51099;BME280;37146;48.210;16.234;2023-02-23T07:30:40;98647.06;;;5.37;100.00
51099;BME280;37146;48.210;16.234;2023-02-23T07:33:05;98642.28;;;5.47;100.00
51099;BME280;37146;48.210;16.234;2023-02-23T07:35:30;98639.53;;;5.50;100.00
51099;BME280;37146;48.210;16.234;2023-02-23T07:37:56;98643.75;;;5.55;100.00
51099;BME280;37146;48.210;16.234;2023-02-23T07:40:21;98645.59;;;5.53;100.00
51099;BME280;37146;48.210;16.234;2023-02-23T07:42:46;98644.66;;;5.54;100.00
51099;BME280;37146;48.210;16.234;2023-02-23T07:45:11;98637.94;;;5.69;100.00
51099;BME280;37146;48.210;16.234;2023-02-23T07:47:37;98632.00;;;5.85;100.00
51099;BME280;37146;48.210;16.234;2023-02-23T07:50:03;98647.03;;;6.10;100.00
51099;BME280;37146;48.210;16.234;2023-02-23T07:52:31;98646.41;;;6.03;100.00
51099;BME280;37146;48.210;16.234;2023-02-23T07:54:57;98639.69;;;6.16;100.00
51099;BME280;37146;48.210;16.234;2023-02-23T07:57:24;98640.84;;;6.31;100.00
51099;BME280;37146;48.210;16.234;2023-02-23T07:59:49;98638.16;;;6.76;100.00
51099;BME280;37146;48.210;16.234;2023-02-23T08:02:14;98643.56;;;6.52;100.00
51099;BME280;37146;48.210;16.234;2023-02-23T08:04:40;98649.41;;;7.03;100.00
51099;BME280;37146;48.210;16.234;2023-02-23T08:07:07;98641.09;;;6.70;100.00
51099;BME280;37146;48.210;16.234;2023-02-23T08:09:32;98649.44;;;6.38;100.00
51099;BME280;37146;48.210;16.234;2023-02-23T08:11:59;98658.03;;;6.45;100.00
51099;BME280;37146;48.210;16.234;2023-02-23T08:14:24;98651.97;;;6.84;100.00
51099;BME280;37146;48.210;16.234;2023-02-23T08:16:49;98650.00;;;7.10;100.00
51099;BME280;37146;48.210;16.234;2023-02-23T08:19:15;98655.81;;;6.99;100.00
51099;BME280;37146;48.210;16.234;2023-02-23T08:21:40;98658.38;;;7.42;98.84
51099;BME280;37146;48.210;16.234;2023-02-23T08:24:07;98654.56;;;7.48;97.33
51099;BME280;37146;48.210;16.234;2023-02-23T08:26:34;98653.53;;;7.31;98.17
51099;BME280;37146;48.210;16.234;2023-02-23T08:28:59;98655.28;;;7.32;98.23
51099;BME280;37146;48.210;16.234;2023-02-23T08:31:24;98659.53;;;8.14;94.46
51099;BME280;37146;48.210;16.234;2023-02-23T08:33:51;98654.59;;;7.67;93.66
51099;BME280;37146;48.210;16.234;2023-02-23T08:36:17;98653.16;;;7.79;94.42
51099;BME280;37146;48.210;16.234;2023-02-23T08:38:42;98654.03;;;8.17;92.36
51099;BME280;37146;48.210;16.234;2023-02-23T08:41:07;98652.75;;;8.07;93.15
51099;BME280;37146;48.210;16.234;2023-02-23T08:43:33;98660.81;;;8.05;91.63
51099;BME280;37146;48.210;16.234;2023-02-23T08:45:58;98645.75;;;8.97;89.20
51099;BME280;37146;48.210;16.234;2023-02-23T08:48:23;98650.69;;;9.05;86.85
51099;BME280;37146;48.210;16.234;2023-02-23T08:50:49;98652.66;;;9.19;85.06
51099;BME280;37146;48.210;16.234;2023-02-23T08:53:15;98655.06;;;9.23;83.94
51099;BME280;37146;48.210;16.234;2023-02-23T08:55:40;98658.44;;;9.44;84.04
51099;BME280;37146;48.210;16.234;2023-02-23T08:58:09;98655.44;;;8.63;86.08
51099;BME280;37146;48.210;16.234;2023-02-23T09:00:35;98655.28;;;8.66;85.14
51099;BME280;37146;48.210;16.234;2023-02-23T09:03:00;98661.75;;;8.97;84.08
51099;BME280;37146;48.210;16.234;2023-02-23T09:05:26;98660.75;;;9.17;84.04
51099;BME280;37146;48.210;16.234;2023-02-23T09:07:51;98663.16;;;9.04;84.35
51099;BME280;37146;48.210;16.234;2023-02-23T09:10:17;98657.88;;;10.05;80.95
51099;BME280;37146;48.210;16.234;2023-02-23T09:12:49;98670.13;;;9.75;79.77
51099;BME280;37146;48.210;16.234;2023-02-23T09:15:14;98666.78;;;9.54;81.49
51099;BME280;37146;48.210;16.234;2023-02-23T09:17:39;98670.59;;;9.50;81.60
51099;BME280;37146;48.210;16.234;2023-02-23T09:20:09;98659.88;;;9.34;80.70
51099;BME280;37146;48.210;16.234;2023-02-23T09:22:37;98667.03;;;9.50;80.75
51099;BME280;37146;48.210;16.234;2023-02-23T09:25:02;98664.38;;;9.83;78.96
51099;BME280;37146;48.210;16.234;2023-02-23T09:27:28;98665.94;;;9.87;78.22
51099;BME280;37146;48.210;16.234;2023-02-23T09:29:54;98659.09;;;10.31;76.67
51099;BME280;37146;48.210;16.234;2023-02-23T09:32:19;98662.56;;;9.84;77.90
51099;BME280;37146;48.210;16.234;2023-02-23T09:34:44;98668.13;;;10.13;76.88
51099;BME280;37146;48.210;16.234;2023-02-23T09:37:09;98668.25;;;10.43;75.97
51099;BME280;37146;48.210;16.234;2023-02-23T09:39:35;98668.41;;;10.56;74.60
51099;BME280;37146;48.210;16.234;2023-02-23T09:44:47;98668.56;;;10.21;76.11
51099;BME280;37146;48.210;16.234;2023-02-23T09:47:27;98663.78;;;10.44;75.86
51099;BME280;37146;48.210;16.234;2023-02-23T09:49:56;98657.22;;;10.96;72.22
51099;BME280;37146;48.210;16.234;2023-02-23T09:52:23;98653.22;;;11.03;73.20
51099;BME280;37146;48.210;16.234;2023-02-23T09:54:50;98656.00;;;10.55;74.35
51099;BME280;37146;48.210;16.234;2023-02-23T09:57:17;98643.56;;;10.70;73.53
51099;BME280;37146;48.210;16.234;2023-02-23T09:59:43;98662.84;;;10.91;72.54
51099;BME280;37146;48.210;16.234;2023-02-23T10:02:30;98658.31;;;11.82;69.48
51099;BME280;37146;48.210;16.234;2023-02-23T10:05:01;98655.84;;;11.19;71.71
51099;BME280;37146;48.210;16.234;2023-02-23T10:23:07;98647.19;;;13.39;62.25
51099;BME280;37146;48.210;16.234;2023-02-23T10:25:34;98653.41;;;12.87;64.72
51099;BME280;37146;48.210;16.234;2023-02-23T10:28:02;98641.28;;;14.23;60.67
51099;BME280;37146;48.210;16.234;2023-02-23T10:30:31;98646.66;;;14.36;57.58
51099;BME280;37146;48.210;16.234;2023-02-23T10:33:03;98645.53;;;14.01;60.54
51099;BME280;37146;48.210;16.234;2023-02-23T10:35:31;98647.47;;;13.22;61.78
51099;BME280;37146;48.210;16.234;2023-02-23T10:37:58;98642.00;;;12.83;63.35
51099;BME280;37146;48.210;16.234;2023-02-23T10:40:25;98641.34;;;13.20;63.85
51099;BME280;37146;48.210;16.234;2023-02-23T10:42:52;98641.81;;;13.65;62.11
51099;BME280;37146;48.210;16.234;2023-02-23T10:45:19;98643.25;;;12.23;64.92
51099;BME280;37146;48.210;16.234;2023-02-23T10:50:25;98639.13;;;13.65;60.89
51099;BME280;37146;48.210;16.234;2023-02-23T10:52:54;98627.44;;;13.66;61.40
51099;BME280;37146;48.210;16.234;2023-02-23T10:57:48;98626.31;;;12.22;67.12
51099;BME280;37146;48.210;16.234;2023-02-23T11:02:41;98623.03;;;12.59;65.41
51099;BME280;37146;48.210;16.234;2023-02-23T11:05:13;98623.66;;;12.62;65.34
51099;BME280;37146;48.210;16.234;2023-02-23T11:07:51;98624.31;;;12.11;67.85
51099;BME280;37146;48.210;16.234;2023-02-23T11:10:32;98630.31;;;11.13;72.34
51099;BME280;37146;48.210;16.234;2023-02-23T11:12:58;98632.34;;;11.24;71.88
51099;BME280;37146;48.210;16.234;2023-02-23T11:17:58;98621.78;;;10.76;74.09
51099;BME280;37146;48.210;16.234;2023-02-23T11:20:27;98611.06;;;10.62;75.44
51099;BME280;37146;48.210;16.234;2023-02-23T11:22:53;98619.66;;;10.97;74.17
51099;BME280;37146;48.210;16.234;2023-02-23T11:25:29;98618.09;;;10.93;75.24
51099;BME280;37146;48.210;16.234;2023-02-23T11:27:55;98605.16;;;11.02;74.57
51099;BME280;37146;48.210;16.234;2023-02-23T11:30:21;98602.53;;;10.86;75.33
51099;BME280;37146;48.210;16.234;2023-02-23T11:32:53;98604.16;;;10.88;75.07
51099;BME280;37146;48.210;16.234;2023-02-23T11:37:45;98608.69;;;10.72;74.92
51099;BME280;37146;48.210;16.234;2023-02-23T11:40:30;98603.44;;;10.70;75.56
51099;BME280;37146;48.210;16.234;2023-02-23T11:42:56;98586.88;;;10.94;74.33
51099;BME280;37146;48.210;16.234;2023-02-23T11:45:31;98588.53;;;11.25;72.98
51099;BME280;37146;48.210;16.234;2023-02-23T11:47:58;98591.34;;;10.93;74.25
51099;BME280;37146;48.210;16.234;2023-02-23T11:55:28;98585.69;;;11.43;72.87
51099;BME280;37146;48.210;16.234;2023-02-23T11:58:18;98575.63;;;11.32;73.07
51099;BME280;37146;48.210;16.234;2023-02-23T12:01:06;98587.03;;;11.65;71.23
51099;BME280;37146;48.210;16.234;2023-02-23T12:03:36;98576.75;;;12.00;72.29
51099;BME280;37146;48.210;16.234;2023-02-23T12:06:02;98569.97;;;11.80;71.10
51099;BME280;37146;48.210;16.234;2023-02-23T12:08:33;98572.16;;;11.88;70.64
51099;BME280;37146;48.210;16.234;2023-02-23T12:10:59;98573.53;;;11.23;72.64
51099;BME280;37146;48.210;16.234;2023-02-23T12:13:30;98569.22;;;11.64;73.43
51099;BME280;37146;48.210;16.234;2023-02-23T12:16:01;98561.41;;;11.46;71.84
51099;BME280;37146;48.210;16.234;2023-02-23T12:20:54;98567.00;;;11.99;70.94
51099;BME280;37146;48.210;16.234;2023-02-23T12:23:21;98560.66;;;11.86;71.37
51099;BME280;37146;48.210;16.234;2023-02-23T12:25:51;98557.88;;;12.02;71.67
51099;BME280;37146;48.210;16.234;2023-02-23T12:28:20;98558.81;;;12.83;66.85
51099;BME280;37146;48.210;16.234;2023-02-23T12:30:50;98556.25;;;12.14;69.56
51099;BME280;37146;48.210;16.234;2023-02-23T12:38:23;98543.50;;;12.17;70.29
51099;BME280;37146;48.210;16.234;2023-02-23T12:40:52;98534.75;;;12.01;70.44
51099;BME280;37146;48.210;16.234;2023-02-23T12:43:24;98540.88;;;11.88;71.17
51099;BME280;37146;48.210;16.234;2023-02-23T12:45:55;98540.88;;;11.88;71.97
51099;BME280;37146;48.210;16.234;2023-02-23T12:50:50;98524.38;;;11.95;71.94
51099;BME280;37146;48.210;16.234;2023-02-23T12:58:29;98518.63;;;12.56;69.86
51099;BME280;37146;48.210;16.234;2023-02-23T13:03:40;98521.53;;;11.98;71.55
51099;BME280;37146;48.210;16.234;2023-02-23T13:06:11;98519.09;;;12.07;71.40
51099;BME280;37146;48.210;16.234;2023-02-23T13:09:01;98512.16;;;11.90;71.82
51099;BME280;37146;48.210;16.234;2023-02-23T13:14:10;98516.53;;;11.91;71.19
51099;BME280;37146;48.210;16.234;2023-02-23T13:16:47;98515.22;;;11.84;71.32
51099;BME280;37146;48.210;16.234;2023-02-23T13:21:48;98521.66;;;11.67;73.39
51099;BME280;37146;48.210;16.234;2023-02-23T13:24:19;98511.06;;;11.51;73.33
51099;BME280;37146;48.210;16.234;2023-02-23T13:31:53;98514.13;;;11.59;73.36
51099;BME280;37146;48.210;16.234;2023-02-23T13:34:25;98517.97;;;11.41;73.42
51099;BME280;37146;48.210;16.234;2023-02-23T13:36:51;98516.91;;;11.43;74.08
51099;BME280;37146;48.210;16.234;2023-02-23T13:46:46;98516.16;;;11.41;74.29
51099;BME280;37146;48.210;16.234;2023-02-23T13:51:49;98512.44;;;11.44;73.41
51099;BME280;37146;48.210;16.234;2023-02-23T13:54:22;98519.22;;;11.50;73.30
51099;BME280;37146;48.210;16.234;2023-02-23T13:56:49;98511.38;;;11.61;73.40
51099;BME280;37146;48.210;16.234;2023-02-23T13:59:18;98512.78;;;11.67;72.91
51099;BME280;37146;48.210;16.234;2023-02-23T14:01:45;98510.22;;;11.51;72.68
51099;BME280;37146;48.210;16.234;2023-02-23T14:04:15;98514.72;;;11.50;72.98
51099;BME280;37146;48.210;16.234;2023-02-23T14:09:19;98520.94;;;11.51;73.33
51099;BME280;37146;48.210;16.234;2023-02-23T14:11:49;98519.50;;;11.45;73.36
51099;BME280;37146;48.210;16.234;2023-02-23T14:19:42;98518.28;;;11.36;72.78
51099;BME280;37146;48.210;16.234;2023-02-23T14:22:08;98512.03;;;11.50;72.28
51099;BME280;37146;48.210;16.234;2023-02-23T14:24:34;98509.88;;;11.70;72.85
51099;BME280;37146;48.210;16.234;2023-02-23T14:29:30;98503.56;;;11.85;71.98
51099;BME280;37146;48.210;16.234;2023-02-23T14:34:42;98498.31;;;11.84;71.61
51099;BME280;37146;48.210;16.234;2023-02-23T14:37:18;98503.09;;;11.79;71.58
51099;BME280;37146;48.210;16.234;2023-02-23T14:39:47;98499.41;;;11.67;72.69
51099;BME280;37146;48.210;16.234;2023-02-23T14:42:18;98494.25;;;11.49;72.29
51099;BME280;37146;48.210;16.234;2023-02-23T14:44:44;98498.34;;;11.55;72.20
51099;BME280;37146;48.210;16.234;2023-02-23T14:47:15;98493.47;;;11.47;72.92
51099;BME280;37146;48.210;16.234;2023-02-23T14:50:02;98493.88;;;11.55;72.41
51099;BME280;37146;48.210;16.234;2023-02-23T14:52:27;98494.22;;;11.64;74.09
51099;BME280;37146;48.210;16.234;2023-02-23T14:57:39;98487.25;;;11.61;75.81
51099;BME280;37146;48.210;16.234;2023-02-23T15:00:26;98488.50;;;11.55;74.07
51099;BME280;37146;48.210;16.234;2023-02-23T15:02:55;98483.47;;;11.36;74.35
51099;BME280;37146;48.210;16.234;2023-02-23T15:05:25;98477.81;;;11.41;73.87
51099;BME280;37146;48.210;16.234;2023-02-23T15:07:50;98480.50;;;11.41;73.98
51099;BME280;37146;48.210;16.234;2023-02-23T15:10:28;98480.50;;;11.41;74.67